Time;durP1;ratioP1;P1;durP2;ratioP2;P2;SDS_P1;SDS_P2;PMS_P1;PMS_P2;Temp;Humidity;BMP_temperature;BMP_pressure;BME280_temperature;BME280_humidity;BME280_pressure;Samples;Min_cycle;Max_cycle;Signal;HPM_P1;HPM_P2
2022/11/13 00:01:18;;;;;;;9.48;8.25;;;7.60;76.40;;;;;;5054781;28;20041;-75
2022/11/13 00:03:44;;;;;;;9.25;8.20;;;7.60;76.40;;;;;;5064148;28;20036;-76
2022/11/13 00:06:10;;;;;;;10.00;8.63;;;7.60;76.50;;;;;;5051173;28;20043;-76
2022/11/13 00:08:36;;;;;;;9.48;8.48;;;7.70;76.80;;;;;;5063883;28;20045;-76
2022/11/13 00:11:05;;;;;;;10.13;8.05;;;7.70;76.90;;;;;;5054570;28;20395;-76
2022/11/13 00:13:32;;;;;;;10.23;8.13;;;7.60;76.90;;;;;;5063601;28;20047;-76
2022/11/13 00:16:03;;;;;;;10.63;8.05;;;7.70;77.00;;;;;;5043799;28;20111;-76
2022/11/13 00:18:30;;;;;;;8.35;6.95;;;7.70;77.00;;;;;;5070886;28;20043;-76
2022/11/13 00:20:57;;;;;;;10.02;7.45;;;7.70;76.60;;;;;;5065713;28;20131;-76
2022/11/13 00:23:23;;;;;;;9.07;7.07;;;7.70;76.00;;;;;;5064189;28;20062;-77
2022/11/13 00:25:49;;;;;;;8.07;7.03;;;7.60;75.60;;;;;;5069868;28;20475;-77
2022/11/13 00:28:15;;;;;;;9.07;7.30;;;7.60;75.70;;;;;;5066867;28;20059;-77
2022/11/13 00:30:40;;;;;;;9.27;7.30;;;7.60;75.90;;;;;;5052830;28;20503;-76
2022/11/13 00:33:06;;;;;;;9.48;6.95;;;7.60;76.20;;;;;;5037511;28;20457;-77
2022/11/13 00:35:33;;;;;;;9.10;7.05;;;7.60;76.40;;;;;;5057709;28;20040;-77
2022/11/13 00:37:58;;;;;;;8.55;7.13;;;7.60;76.50;;;;;;5062018;28;20044;-76
2022/11/13 00:40:24;;;;;;;7.60;6.80;;;7.60;76.70;;;;;;5054961;28;20093;-76
2022/11/13 00:42:50;;;;;;;8.90;7.15;;;7.60;76.70;;;;;;5062402;28;20040;-76
2022/11/13 00:45:15;;;;;;;8.43;6.65;;;7.60;76.80;;;;;;5068630;28;20741;-76
2022/11/13 00:47:41;;;;;;;7.40;6.60;;;7.70;76.90;;;;;;5075292;28;20047;-76
2022/11/13 00:50:07;;;;;;;7.97;7.15;;;7.60;76.90;;;;;;5076094;28;20046;-76
2022/11/13 00:52:32;;;;;;;7.55;6.53;;;7.70;76.90;;;;;;5074850;28;20124;-76
2022/11/13 00:54:58;;;;;;;8.82;7.60;;;7.70;77.00;;;;;;5071232;28;20040;-76
2022/11/13 00:57:24;;;;;;;9.25;7.78;;;7.70;77.00;;;;;;5074154;28;20036;-76
2022/11/13 00:59:49;;;;;;;10.63;7.57;;;7.70;77.00;;;;;;5042278;28;20043;-76
2022/11/13 01:02:15;;;;;;;8.65;7.72;;;7.70;77.00;;;;;;5074418;28;20063;-76
2022/11/13 01:04:41;;;;;;;10.18;7.70;;;7.70;77.00;;;;;;5058855;28;20047;-76
2022/11/13 01:07:07;;;;;;;9.32;7.20;;;7.70;77.00;;;;;;5066269;28;20040;-76
2022/11/13 01:09:33;;;;;;;7.60;6.53;;;7.70;77.10;;;;;;5075834;28;20101;-76
2022/11/13 01:11:58;;;;;;;9.55;7.40;;;7.80;77.20;;;;;;5066622;28;20071;-76
2022/11/13 01:14:24;;;;;;;9.20;7.63;;;7.80;77.20;;;;;;5075589;28;20040;-76
2022/11/13 01:16:50;;;;;;;8.88;7.22;;;7.70;77.20;;;;;;5058371;28;20067;-77
2022/11/13 01:19:16;;;;;;;8.20;6.80;;;7.80;77.30;;;;;;5058447;28;20036;-76
2022/11/13 01:21:41;;;;;;;8.15;7.10;;;7.80;77.40;;;;;;5068266;28;20170;-76
2022/11/13 01:24:07;;;;;;;10.52;7.95;;;7.80;77.40;;;;;;5075155;28;20082;-76
2022/11/13 01:26:33;;;;;;;9.18;6.70;;;7.90;77.90;;;;;;5074132;28;20051;-76
2022/11/13 01:28:59;;;;;;;11.40;8.70;;;7.90;77.40;;;;;;5075037;28;20047;-76
2022/11/13 01:31:28;;;;;;;10.52;8.35;;;7.90;77.30;;;;;;5075290;28;20111;-76
2022/11/13 01:33:54;;;;;;;10.68;9.20;;;7.90;77.30;;;;;;5057313;28;20079;-77
2022/11/13 01:36:26;;;;;;;12.88;10.20;;;7.90;77.20;;;;;;5041498;28;20113;-77
2022/11/13 01:38:52;;;;;;;10.50;9.35;;;7.90;77.00;;;;;;5061337;28;20183;-76
2022/11/13 01:41:21;;;;;;;9.93;8.70;;;7.90;76.80;;;;;;5074640;28;20105;-76
2022/11/13 01:43:47;;;;;;;15.02;10.93;;;7.80;76.70;;;;;;5058744;28;20036;-76
2022/11/13 01:46:33;;;;;;;16.15;11.45;;;7.80;76.70;;;;;;5074767;28;20032;-77
2022/11/13 01:49:10;;;;;;;18.05;12.23;;;7.80;76.80;;;;;;5075434;28;20032;-76
2022/11/13 01:52:04;;;;;;;16.45;12.57;;;7.80;77.10;;;;;;5058645;28;20364;-76
2022/11/13 01:54:38;;;;;;;17.75;13.15;;;7.70;77.30;;;;;;5068883;28;20080;-76
2022/11/13 01:57:04;;;;;;;15.55;12.90;;;7.70;77.60;;;;;;5065263;28;20044;-76
2022/11/13 01:59:38;;;;;;;15.68;12.80;;;7.60;77.60;;;;;;5074342;28;20036;-77
2022/11/13 02:02:04;;;;;;;17.17;12.77;;;7.70;77.90;;;;;;5066345;28;20503;-76
2022/11/13 02:04:30;;;;;;;17.15;12.15;;;7.70;78.00;;;;;;5074517;28;20066;-77
2022/11/13 02:07:01;;;;;;;15.88;12.77;;;7.70;78.00;;;;;;5041346;28;20043;-77
2022/11/13 02:09:35;;;;;;;17.50;12.48;;;7.70;78.10;;;;;;5072915;28;20494;-76
2022/11/13 02:12:01;;;;;;;16.45;13.02;;;7.70;78.20;;;;;;5065562;28;20044;-76
2022/11/13 02:14:28;;;;;;;19.48;12.90;;;7.60;78.20;;;;;;5069842;28;20387;-76
2022/11/13 02:16:57;;;;;;;16.23;12.82;;;7.60;78.30;;;;;;5074193;28;20037;-76
2022/11/13 02:19:30;;;;;;;16.33;12.00;;;7.60;78.40;;;;;;5068319;28;20085;-77
2022/11/13 02:22:21;;;;;;;14.60;11.70;;;7.60;78.50;;;;;;5057347;28;20044;-77
2022/11/13 02:24:47;;;;;;;14.18;12.05;;;7.60;78.60;;;;;;5071149;28;20182;-76
2022/11/13 02:27:26;;;;;;;14.43;12.50;;;7.60;78.60;;;;;;5056067;28;20041;-76
2022/11/13 02:29:52;;;;;;;15.85;11.88;;;7.60;78.70;;;;;;5073958;28;20056;-77
2022/11/13 02:32:18;;;;;;;13.88;11.70;;;7.60;78.60;;;;;;5057621;28;20181;-76
2022/11/13 02:34:43;;;;;;;16.92;13.95;;;7.60;78.70;;;;;;5046819;28;20040;-76
2022/11/13 02:37:09;;;;;;;16.75;13.18;;;7.60;78.70;;;;;;5057701;28;20032;-76
2022/11/13 02:39:35;;;;;;;15.77;12.82;;;7.60;78.70;;;;;;5057862;28;20040;-76
2022/11/13 02:42:01;;;;;;;17.50;12.68;;;7.60;78.60;;;;;;5057629;28;20403;-76
2022/11/13 02:44:26;;;;;;;18.25;13.38;;;7.60;78.60;;;;;;5073916;28;20345;-76
2022/11/13 02:46:52;;;;;;;16.52;13.57;;;7.60;78.60;;;;;;5074245;28;20044;-76
2022/11/13 02:49:17;;;;;;;17.08;13.93;;;7.60;78.70;;;;;;5055192;28;20124;-77
2022/11/13 02:51:43;;;;;;;16.20;13.32;;;7.60;78.70;;;;;;5071267;28;20071;-76
2022/11/13 02:54:09;;;;;;;17.52;13.50;;;7.60;78.70;;;;;;5072578;28;20036;-77
2022/11/13 02:56:34;;;;;;;14.93;12.25;;;7.60;78.60;;;;;;5072260;28;20078;-76
2022/11/13 02:59:00;;;;;;;17.35;13.27;;;7.60;78.70;;;;;;5055163;28;20043;-76
2022/11/13 03:01:26;;;;;;;17.65;12.85;;;7.60;78.70;;;;;;5057634;28;20028;-76
2022/11/13 03:03:52;;;;;;;14.07;11.68;;;7.60;78.70;;;;;;5053742;28;20439;-77
2022/11/13 03:06:17;;;;;;;14.05;11.25;;;7.70;78.80;;;;;;5072723;28;20036;-77
2022/11/13 03:08:43;;;;;;;12.10;10.75;;;7.70;78.80;;;;;;5073792;28;20543;-76
2022/11/13 03:11:10;;;;;;;13.43;11.88;;;7.70;78.80;;;;;;5073919;28;20040;-77
2022/11/13 03:13:36;;;;;;;13.60;11.30;;;7.80;78.90;;;;;;5090951;28;20108;-76
2022/11/13 03:16:14;;;;;;;11.65;10.00;;;7.70;78.90;;;;;;5090243;28;20043;-76
2022/11/13 03:18:40;;;;;;;13.55;10.88;;;7.80;79.00;;;;;;5070497;28;20073;-76
2022/11/13 03:21:08;;;;;;;15.23;11.00;;;7.80;78.90;;;;;;5066321;28;20036;-77
2022/11/13 03:23:34;;;;;;;12.35;10.30;;;7.80;78.90;;;;;;5075600;28;20049;-77
2022/11/13 03:26:06;;;;;;;11.40;9.77;;;7.80;78.70;;;;;;5077592;28;20047;-76
2022/11/13 03:28:32;;;;;;;12.35;10.18;;;7.80;78.80;;;;;;5077506;28;20627;-77
2022/11/13 03:30:58;;;;;;;12.38;10.15;;;7.90;78.70;;;;;;5077284;28;20060;-77
2022/11/13 03:33:24;;;;;;;12.25;10.10;;;7.80;78.60;;;;;;5077207;28;20482;-76
2022/11/13 03:35:50;;;;;;;13.63;10.13;;;7.90;78.60;;;;;;5094235;28;20040;-77
2022/11/13 03:38:16;;;;;;;13.65;10.23;;;7.90;78.60;;;;;;5077282;28;20564;-76
2022/11/13 03:40:42;;;;;;;14.07;9.93;;;7.90;78.50;;;;;;5077397;28;20046;-76
2022/11/13 03:43:07;;;;;;;10.95;9.52;;;7.90;78.40;;;;;;5057527;28;20525;-76
2022/11/13 03:45:33;;;;;;;10.93;8.95;;;7.90;78.40;;;;;;5066476;28;20115;-76
2022/11/13 03:47:59;;;;;;;12.13;9.15;;;8.00;78.40;;;;;;5077064;28;20038;-77
2022/11/13 03:50:25;;;;;;;10.48;8.85;;;7.90;78.40;;;;;;5077116;28;20068;-76
2022/11/13 03:52:52;;;;;;;11.50;9.35;;;7.90;78.40;;;;;;5060707;28;20067;-77
2022/11/13 03:55:17;;;;;;;9.82;8.65;;;8.00;78.40;;;;;;5077007;28;20050;-76
2022/11/13 03:57:43;;;;;;;11.85;10.57;;;8.00;78.30;;;;;;5066903;28;20040;-76
2022/11/13 04:00:09;;;;;;;14.13;11.13;;;8.00;78.20;;;;;;5076692;28;20043;-77
2022/11/13 04:02:35;;;;;;;12.15;10.32;;;8.00;78.20;;;;;;5057155;28;20048;-77
2022/11/13 04:05:01;;;;;;;12.70;9.38;;;8.00;78.00;;;;;;5093698;28;20380;-76
2022/11/13 04:07:26;;;;;;;12.00;10.30;;;8.00;77.80;;;;;;5062502;28;20500;-77
2022/11/13 04:09:52;;;;;;;12.23;10.02;;;8.00;77.70;;;;;;5076199;28;20040;-76
2022/11/13 04:12:18;;;;;;;11.20;9.60;;;8.00;77.70;;;;;;5093799;28;20491;-77
2022/11/13 04:14:43;;;;;;;10.85;9.65;;;7.90;77.60;;;;;;5073028;28;20040;-77
2022/11/13 04:17:09;;;;;;;10.95;9.65;;;8.00;77.60;;;;;;5076853;28;20040;-77
2022/11/13 04:19:35;;;;;;;15.43;11.10;;;8.00;77.60;;;;;;5076335;28;20028;-77
2022/11/13 04:22:00;;;;;;;12.30;10.25;;;8.00;77.50;;;;;;5060137;28;20044;-77
2022/11/13 04:24:26;;;;;;;12.73;10.65;;;8.00;77.30;;;;;;5076400;28;20047;-76
2022/11/13 04:26:52;;;;;;;10.70;9.57;;;8.00;77.20;;;;;;5059712;28;20074;-77
2022/11/13 04:29:17;;;;;;;12.10;9.77;;;7.90;77.00;;;;;;5076749;28;20050;-76
2022/11/13 04:31:43;;;;;;;13.13;9.88;;;7.90;77.10;;;;;;5076558;28;21745;-76
2022/11/13 04:34:09;;;;;;;12.45;8.95;;;7.90;77.00;;;;;;5059465;28;20032;-76
2022/11/13 04:36:34;;;;;;;12.07;9.90;;;7.90;77.00;;;;;;5059015;28;20101;-76
2022/11/13 04:39:00;;;;;;;9.73;8.70;;;7.90;77.00;;;;;;5076297;28;20073;-77
2022/11/13 04:44:09;;;;;;;11.50;9.33;;;7.80;77.00;;;;;;5056220;28;20036;-76
2022/11/13 04:46:35;;;;;;;10.23;8.57;;;7.80;77.00;;;;;;5059111;28;20483;-76
2022/11/13 04:49:01;;;;;;;10.75;8.65;;;7.80;77.10;;;;;;5076201;28;20092;-77
2022/11/13 04:51:26;;;;;;;10.82;8.80;;;7.80;77.20;;;;;;5059268;28;20040;-76
2022/11/13 04:53:52;;;;;;;12.15;9.05;;;7.80;77.30;;;;;;5074719;28;20048;-76
2022/11/13 04:56:17;;;;;;;10.98;9.10;;;7.80;77.30;;;;;;5073673;28;20086;-76
2022/11/13 04:58:43;;;;;;;13.15;10.57;;;7.80;77.30;;;;;;5076044;28;20483;-76
2022/11/13 05:01:09;;;;;;;13.57;10.80;;;7.80;77.20;;;;;;5075639;28;20101;-77
2022/11/13 05:03:34;;;;;;;12.30;10.25;;;7.80;77.10;;;;;;5055651;28;20040;-76
2022/11/13 05:06:02;;;;;;;14.90;11.25;;;7.80;77.50;;;;;;5075197;28;20043;-77
2022/11/13 05:08:27;;;;;;;14.20;11.43;;;7.80;77.00;;;;;;5092525;28;20479;-76
2022/11/13 05:10:53;;;;;;;17.48;12.07;;;7.70;76.90;;;;;;5075443;28;20046;-77
2022/11/13 05:13:19;;;;;;;18.17;12.48;;;7.70;76.90;;;;;;5092461;28;20068;-76
2022/11/13 05:15:44;;;;;;;15.35;11.95;;;7.60;77.00;;;;;;5070458;28;20079;-77
2022/11/13 05:18:10;;;;;;;16.02;12.52;;;7.60;77.10;;;;;;5058828;28;20093;-77
2022/11/13 05:20:36;;;;;;;13.90;12.10;;;7.50;77.20;;;;;;5066948;28;20040;-77
2022/11/13 05:23:01;;;;;;;19.98;12.77;;;7.50;77.30;;;;;;5075155;28;20044;-77
2022/11/13 05:25:27;;;;;;;14.73;12.15;;;7.50;77.40;;;;;;5075515;28;20038;-76
2022/11/13 05:27:53;;;;;;;16.08;13.32;;;7.40;77.40;;;;;;5057998;28;20040;-77
2022/11/13 05:30:18;;;;;;;15.43;11.90;;;7.40;77.50;;;;;;5074924;28;20055;-76
2022/11/13 05:32:44;;;;;;;13.52;10.73;;;7.40;77.50;;;;;;5092067;28;20089;-76
2022/11/13 05:35:10;;;;;;;12.13;9.45;;;7.40;77.60;;;;;;5092416;28;20059;-76
2022/11/13 05:37:35;;;;;;;11.68;9.43;;;7.40;77.70;;;;;;5072812;28;20032;-76
2022/11/13 05:40:01;;;;;;;12.98;9.85;;;7.40;77.80;;;;;;5058333;28;20502;-76
2022/11/13 05:42:26;;;;;;;10.93;9.48;;;7.40;77.90;;;;;;5075156;28;20494;-76
2022/11/13 05:44:52;;;;;;;12.00;9.93;;;7.40;78.10;;;;;;5071922;28;20520;-76
2022/11/13 05:47:18;;;;;;;12.30;9.77;;;7.40;78.10;;;;;;5073864;28;20536;-76
2022/11/13 05:49:43;;;;;;;12.23;9.50;;;7.40;78.10;;;;;;5075120;28;20107;-76
2022/11/13 05:52:09;;;;;;;14.02;10.50;;;7.40;78.00;;;;;;5041309;28;20178;-76
2022/11/13 05:54:34;;;;;;;12.73;10.18;;;7.50;78.10;;;;;;5075076;28;20071;-77
2022/11/13 05:57:00;;;;;;;11.75;9.10;;;7.40;78.10;;;;;;5074286;28;20039;-76
2022/11/13 05:59:26;;;;;;;13.23;11.43;;;7.50;78.10;;;;;;5074712;28;20043;-77
2022/11/13 06:01:51;;;;;;;14.38;11.18;;;7.50;78.10;;;;;;5054795;28;20036;-76
2022/11/13 06:04:17;;;;;;;13.15;10.50;;;7.40;78.00;;;;;;5073942;28;20062;-77
2022/11/13 06:06:42;;;;;;;12.02;10.52;;;7.50;78.10;;;;;;5074760;28;20166;-77
2022/11/13 06:09:09;;;;;;;12.45;10.98;;;7.50;77.90;;;;;;5072053;28;20045;-76
2022/11/13 06:11:35;;;;;;;14.27;11.75;;;7.50;77.90;;;;;;5091607;28;20044;-76
2022/11/13 06:14:01;;;;;;;14.00;12.02;;;7.50;77.80;;;;;;5057649;28;20044;-76
2022/11/13 06:16:34;;;;;;;15.48;12.25;;;7.50;77.60;;;;;;5074683;28;20044;-76
2022/11/13 06:19:03;;;;;;;13.30;10.57;;;7.50;77.50;;;;;;5074779;28;20032;-76
2022/11/13 06:21:33;;;;;;;14.13;10.98;;;7.40;77.40;;;;;;5058533;28;20032;-77
2022/11/13 06:24:00;;;;;;;12.45;10.20;;;7.40;77.40;;;;;;5074887;28;20114;-77
2022/11/13 06:26:31;;;;;;;10.38;8.65;;;7.40;77.40;;;;;;5074909;28;20485;-77
2022/11/13 06:28:58;;;;;;;11.55;10.18;;;7.40;77.50;;;;;;5074317;28;20032;-76
2022/11/13 06:31:27;;;;;;;12.32;9.98;;;7.40;77.50;;;;;;5072899;28;20460;-76
2022/11/13 06:33:53;;;;;;;13.00;9.75;;;7.50;77.60;;;;;;5070996;28;20048;-76
2022/11/13 06:36:26;;;;;;;12.25;9.82;;;7.50;77.60;;;;;;5072007;28;20044;-76
2022/11/13 06:38:52;;;;;;;11.38;9.63;;;7.40;77.60;;;;;;5074240;28;20048;-77
2022/11/13 06:41:23;;;;;;;12.40;10.23;;;7.40;77.60;;;;;;5065416;28;20044;-77
2022/11/13 06:43:49;;;;;;;12.07;9.07;;;7.40;77.60;;;;;;5067681;28;20166;-77
2022/11/13 06:46:25;;;;;;;12.38;11.07;;;7.40;77.60;;;;;;5057754;28;20097;-77
2022/11/13 06:48:51;;;;;;;12.13;9.98;;;7.50;77.70;;;;;;5074092;28;20127;-77
2022/11/13 06:51:25;;;;;;;10.93;9.60;;;7.40;77.60;;;;;;5074354;28;20048;-77
2022/11/13 06:53:51;;;;;;;12.52;9.93;;;7.40;77.50;;;;;;5065327;28;20040;-77
2022/11/13 06:56:18;;;;;;;11.13;9.73;;;7.30;77.40;;;;;;5071252;28;20036;-77
2022/11/13 06:58:44;;;;;;;12.45;10.52;;;7.40;77.40;;;;;;5076166;28;20079;-77
2022/11/13 07:01:13;;;;;;;12.98;8.50;;;7.40;77.30;;;;;;5052160;28;20043;-76
2022/11/13 07:03:39;;;;;;;11.18;9.68;;;7.40;77.30;;;;;;5077837;28;20035;-77
2022/11/13 07:06:08;;;;;;;10.88;8.70;;;7.40;77.40;;;;;;5078195;28;20036;-77
2022/11/13 07:08:34;;;;;;;11.63;9.70;;;7.40;77.40;;;;;;5075607;28;20442;-78
2022/11/13 07:11:00;;;;;;;12.43;10.32;;;7.40;77.40;;;;;;5077657;28;20089;-77
2022/11/13 07:13:27;;;;;;;12.00;9.60;;;7.40;77.40;;;;;;5077899;28;20040;-77
2022/11/13 07:15:53;;;;;;;13.25;11.18;;;7.40;77.30;;;;;;5060997;28;20047;-77
2022/11/13 07:18:19;;;;;;;11.95;10.18;;;7.30;77.20;;;;;;5077792;28;20039;-77
2022/11/13 07:20:44;;;;;;;11.73;9.90;;;7.40;77.10;;;;;;5061030;28;20039;-77
2022/11/13 07:23:10;;;;;;;12.15;10.02;;;7.30;77.00;;;;;;5077814;28;20032;-78
2022/11/13 07:25:36;;;;;;;11.52;9.57;;;7.40;77.10;;;;;;5077553;28;20040;-77
2022/11/13 07:28:02;;;;;;;14.23;11.07;;;7.40;77.00;;;;;;5066673;28;20077;-77
2022/11/13 07:30:27;;;;;;;11.95;9.98;;;7.30;77.00;;;;;;5077439;28;20090;-77
2022/11/13 07:32:53;;;;;;;13.98;11.25;;;7.30;77.00;;;;;;5069495;28;20044;-77
2022/11/13 07:35:19;;;;;;;11.85;10.25;;;7.30;77.00;;;;;;5077280;28;20036;-77
2022/11/13 07:37:45;;;;;;;12.30;10.30;;;7.30;77.00;;;;;;5075620;28;20040;-77
2022/11/13 07:40:11;;;;;;;14.15;12.23;;;7.30;77.00;;;;;;5094164;28;20047;-77
2022/11/13 07:42:37;;;;;;;15.48;12.50;;;7.30;76.90;;;;;;5060716;28;20028;-77
2022/11/13 07:45:04;;;;;;;16.10;12.13;;;7.30;77.10;;;;;;5077669;28;20043;-75
2022/11/13 07:47:30;;;;;;;14.13;12.57;;;7.40;77.80;;;;;;5077079;28;20036;-75
2022/11/13 07:49:56;;;;;;;16.35;13.57;;;7.50;78.80;;;;;;5077392;28;20067;-76
2022/11/13 07:52:22;;;;;;;17.05;13.68;;;7.60;78.60;;;;;;5077073;28;20522;-76
2022/11/13 07:54:47;;;;;;;14.98;13.07;;;7.90;78.60;;;;;;5077520;28;20143;-76
2022/11/13 07:57:13;;;;;;;14.20;12.70;;;8.00;78.40;;;;;;5060319;28;20043;-75
2022/11/13 07:59:39;;;;;;;17.10;12.13;;;8.10;77.30;;;;;;5072668;28;20044;-78
2022/11/13 08:02:05;;;;;;;16.50;12.82;;;8.10;76.80;;;;;;5076901;28;20123;-76
2022/11/13 08:04:31;;;;;;;15.18;12.35;;;8.10;76.50;;;;;;5060085;28;20028;-76
2022/11/13 08:06:56;;;;;;;13.23;11.38;;;8.20;76.30;;;;;;5076982;28;20044;-76
2022/11/13 08:09:22;;;;;;;16.30;12.23;;;8.20;76.20;;;;;;5067400;28;20076;-76
2022/11/13 08:11:48;;;;;;;17.35;13.25;;;8.20;76.10;;;;;;5075761;28;20040;-76
2022/11/13 08:14:14;;;;;;;17.83;14.52;;;8.20;76.20;;;;;;5057765;28;20044;-76
2022/11/13 08:16:40;;;;;;;15.68;13.38;;;8.30;76.10;;;;;;5076850;28;20040;-76
2022/11/13 08:19:06;;;;;;;22.23;16.52;;;8.30;76.00;;;;;;5076547;28;20479;-76
2022/11/13 08:21:33;;;;;;;23.48;17.65;;;8.40;76.10;;;;;;5051888;28;20038;-77
2022/11/13 08:23:59;;;;;;;23.85;17.65;;;8.40;76.40;;;;;;5076857;28;20368;-76
2022/11/13 08:26:24;;;;;;;26.30;18.95;;;8.50;76.00;;;;;;5059855;28;20040;-76
2022/11/13 08:28:50;;;;;;;24.33;18.00;;;8.50;76.00;;;;;;5076577;28;20051;-76
2022/11/13 08:31:17;;;;;;;21.67;16.50;;;8.60;76.00;;;;;;5060139;28;20075;-76
2022/11/13 08:33:42;;;;;;;23.58;14.25;;;8.70;76.00;;;;;;5059558;28;20082;-76
2022/11/13 08:36:09;;;;;;;15.07;13.40;;;8.90;75.90;;;;;;5093445;28;20484;-75
2022/11/13 08:38:35;;;;;;;13.40;11.45;;;9.00;75.90;;;;;;5076062;28;20110;-76
2022/11/13 08:41:04;;;;;;;13.88;11.95;;;9.20;75.70;;;;;;5093278;28;20136;-76
2022/11/13 08:43:30;;;;;;;13.18;11.35;;;9.40;75.30;;;;;;5068164;28;20064;-77
2022/11/13 08:45:56;;;;;;;13.77;11.43;;;9.50;75.10;;;;;;5065031;28;20132;-76
2022/11/13 08:48:22;;;;;;;12.90;10.98;;;9.60;74.60;;;;;;5066949;28;20041;-77
2022/11/13 08:50:52;;;;;;;12.45;10.07;;;9.80;74.30;;;;;;5037710;28;20067;-77
2022/11/13 08:53:18;;;;;;;13.95;10.50;;;9.90;73.80;;;;;;5092643;28;20048;-77
2022/11/13 08:55:44;;;;;;;13.77;9.98;;;10.00;73.30;;;;;;5075164;28;20093;-77
2022/11/13 08:58:09;;;;;;;12.27;10.50;;;10.10;73.00;;;;;;5074469;28;20488;-77
2022/11/13 09:00:35;;;;;;;11.77;10.27;;;10.20;72.70;;;;;;5092018;28;20035;-77
2022/11/13 09:03:01;;;;;;;13.75;10.50;;;10.40;72.40;;;;;;5039517;28;20047;-78
2022/11/13 09:05:27;;;;;;;10.95;9.85;;;10.40;72.00;;;;;;5075749;28;20036;-77
2022/11/13 09:07:57;;;;;;;13.05;11.32;;;10.50;71.70;;;;;;5075960;28;20044;-77
2022/11/13 09:10:23;;;;;;;12.70;10.45;;;10.60;70.90;;;;;;5071346;28;20532;-77
2022/11/13 09:13:01;;;;;;;12.35;9.88;;;10.70;70.50;;;;;;5067051;28;20195;-77
2022/11/13 09:15:28;;;;;;;11.90;10.63;;;10.70;70.50;;;;;;5065896;28;20028;-77
2022/11/13 09:17:58;;;;;;;11.68;9.45;;;10.80;70.50;;;;;;5075128;28;20500;-77
2022/11/13 09:20:24;;;;;;;12.27;9.75;;;10.90;70.10;;;;;;5066384;28;20032;-77
2022/11/13 09:22:57;;;;;;;11.95;9.68;;;10.90;70.00;;;;;;5058470;28;20032;-77
2022/11/13 09:25:23;;;;;;;11.77;9.75;;;11.00;69.70;;;;;;5074327;28;20043;-77
2022/11/13 09:27:54;;;;;;;11.05;9.85;;;11.10;69.80;;;;;;5075650;28;20047;-77
2022/11/13 09:30:21;;;;;;;11.30;9.50;;;11.10;69.30;;;;;;5058512;28;20088;-77
2022/11/13 09:32:46;;;;;;;11.35;9.55;;;11.20;69.20;;;;;;5075045;28;20070;-77
2022/11/13 09:35:12;;;;;;;10.93;8.55;;;11.20;69.00;;;;;;5070487;28;20072;-77
2022/11/13 09:37:38;;;;;;;11.07;9.80;;;11.20;68.30;;;;;;5075147;28;20043;-77
2022/11/13 09:40:04;;;;;;;11.48;10.15;;;11.20;68.20;;;;;;5076414;28;20040;-77
2022/11/13 09:42:31;;;;;;;11.43;9.80;;;11.20;67.90;;;;;;5075597;28;20071;-77
2022/11/13 09:45:06;;;;;;;11.57;9.55;;;11.20;67.80;;;;;;5055171;28;20048;-77
2022/11/13 09:47:45;;;;;;;13.18;9.98;;;11.20;67.10;;;;;;5073459;28;20032;-77
2022/11/13 09:50:28;;;;;;;13.40;10.60;;;11.20;67.30;;;;;;5070556;28;20047;-77
2022/11/13 09:52:54;;;;;;;12.05;10.82;;;11.20;66.90;;;;;;5075026;28;20425;-77
2022/11/13 09:55:25;;;;;;;14.93;12.45;;;11.20;67.20;;;;;;5063534;28;20044;-77
2022/11/13 09:58:20;;;;;;;33.15;22.42;;;11.20;67.00;;;;;;5073604;28;20403;-77
2022/11/13 10:00:46;;;;;;;16.63;12.95;;;11.20;67.30;;;;;;5073071;28;20391;-70
2022/11/13 10:03:30;;;;;;;13.10;10.88;;;11.20;68.00;;;;;;5057680;28;20032;-70
2022/11/13 10:06:02;;;;;;;11.10;9.07;;;11.20;67.90;;;;;;5074047;28;20032;-70
2022/11/13 10:08:46;;;;;;;11.27;8.93;;;11.20;67.50;;;;;;5073638;28;20036;-70
2022/11/13 10:11:36;;;;;;;10.25;9.05;;;11.20;67.80;;;;;;5073886;28;20089;-70
2022/11/13 10:14:22;;;;;;;10.85;8.48;;;11.30;67.90;;;;;;5055380;28;20090;-69
2022/11/13 10:17:10;;;;;;;10.02;8.85;;;11.30;67.80;;;;;;5070672;28;20503;-70
2022/11/13 10:19:58;;;;;;;10.05;8.70;;;11.40;67.60;;;;;;5072790;28;20028;-70
2022/11/13 10:22:31;;;;;;;10.63;9.10;;;11.40;67.70;;;;;;5062933;28;20483;-73
2022/11/13 10:25:03;;;;;;;12.18;10.35;;;11.40;68.30;;;;;;5071511;28;20051;-70
2022/11/13 10:27:29;;;;;;;10.95;9.50;;;11.50;67.80;;;;;;5068293;28;20035;-69
2022/11/13 10:29:55;;;;;;;9.75;8.73;;;11.50;68.00;;;;;;5051554;28;20131;-70
2022/11/13 10:32:27;;;;;;;10.77;8.60;;;11.50;68.20;;;;;;5072201;28;20044;-68
2022/11/13 10:35:20;;;;;;;10.50;9.07;;;11.60;67.90;;;;;;5073103;28;20499;-69
2022/11/13 10:38:06;;;;;;;9.63;8.70;;;11.60;67.20;;;;;;5070543;28;20041;-68
2022/11/13 10:40:38;;;;;;;9.95;9.00;;;11.70;67.20;;;;;;5063293;28;20522;-67
2022/11/13 10:43:18;;;;;;;11.25;9.77;;;11.70;67.60;;;;;;5072234;28;20037;-68
2022/11/13 10:45:55;;;;;;;11.15;9.48;;;11.70;67.60;;;;;;5071787;28;20136;-68
2022/11/13 10:48:34;;;;;;;11.45;9.02;;;11.80;67.70;;;;;;5035474;28;20164;-68
2022/11/13 10:51:24;;;;;;;11.68;9.07;;;11.90;67.80;;;;;;5052587;28;20044;-69
2022/11/13 10:53:51;;;;;;;9.90;8.65;;;11.90;67.50;;;;;;5065043;28;20036;-68
2022/11/13 10:56:28;;;;;;;10.43;8.27;;;11.90;68.00;;;;;;5064456;28;20083;-69
2022/11/13 10:59:15;;;;;;;8.85;7.85;;;12.00;67.60;;;;;;5067713;28;20071;-68
2022/11/13 11:01:43;;;;;;;9.65;7.93;;;12.10;67.70;;;;;;5065231;28;20036;-66
2022/11/13 11:04:28;;;;;;;9.63;8.63;;;12.10;67.40;;;;;;5066835;28;20040;-67
2022/11/13 11:06:55;;;;;;;8.98;8.00;;;12.20;66.30;;;;;;5064496;28;20501;-68
2022/11/13 11:09:30;;;;;;;10.82;8.30;;;12.20;66.30;;;;;;5043186;28;20121;-67
2022/11/13 11:12:17;;;;;;;9.73;7.90;;;12.20;66.60;;;;;;5032591;28;20071;-67
2022/11/13 11:14:55;;;;;;;9.75;7.95;;;12.30;66.80;;;;;;5065672;28;20089;-68
2022/11/13 11:17:41;;;;;;;9.63;8.63;;;12.30;67.10;;;;;;5059060;28;20395;-68
2022/11/13 11:20:34;;;;;;;9.25;8.13;;;12.40;67.30;;;;;;5073651;28;20119;-68
2022/11/13 11:23:38;;;;;;;11.10;8.95;;;12.40;67.90;;;;;;5073742;28;20032;-67
2022/11/13 11:26:16;;;;;;;9.27;8.27;;;12.50;67.40;;;;;;5053366;28;20140;-68
2022/11/13 11:28:58;;;;;;;9.48;8.35;;;12.50;67.50;;;;;;5073652;28;20561;-68
2022/11/13 11:32:03;;;;;;;8.80;7.78;;;12.50;67.10;;;;;;5070108;28;20068;-68
2022/11/13 11:34:43;;;;;;;9.27;7.90;;;12.60;67.00;;;;;;5041677;28;20052;-68
2022/11/13 11:37:20;;;;;;;10.10;8.45;;;12.60;67.00;;;;;;5070620;28;20043;-68
2022/11/13 11:39:54;;;;;;;9.25;7.53;;;12.60;67.00;;;;;;5053841;28;20124;-68
2022/11/13 11:42:45;;;;;;;9.13;7.38;;;12.60;66.90;;;;;;5061601;28;20041;-68
2022/11/13 11:45:25;;;;;;;9.38;8.00;;;12.70;66.80;;;;;;5071118;28;20157;-67
2022/11/13 11:47:52;;;;;;;10.23;8.10;;;12.70;67.40;;;;;;5057038;28;20051;-67
2022/11/13 11:50:37;;;;;;;8.10;7.30;;;12.70;67.40;;;;;;5073552;28;20614;-67
2022/11/13 11:53:04;;;;;;;8.80;7.90;;;12.80;67.20;;;;;;5073498;28;20033;-67
2022/11/13 11:56:08;;;;;;;8.45;7.55;;;12.70;67.00;;;;;;5069411;28;20040;-67
2022/11/13 11:58:59;;;;;;;8.45;7.47;;;12.80;66.50;;;;;;5052472;28;20040;-68
2022/11/13 12:01:30;;;;;;;8.57;7.30;;;12.80;66.60;;;;;;5070129;28;20041;-68
2022/11/13 12:04:06;;;;;;;8.75;6.68;;;12.90;66.80;;;;;;5055057;28;20047;-68
2022/11/13 12:06:58;;;;;;;8.55;7.18;;;12.90;66.70;;;;;;5070080;28;20045;-68
2022/11/13 12:09:31;;;;;;;7.70;7.00;;;12.90;66.10;;;;;;5067305;28;20120;-68
2022/11/13 12:12:05;;;;;;;8.88;7.80;;;13.00;66.50;;;;;;5073247;28;20115;-68
2022/11/13 12:15:06;;;;;;;9.18;7.53;;;13.00;66.40;;;;;;5073497;28;20032;-68
2022/11/13 12:18:03;;;;;;;7.72;6.47;;;13.00;65.50;;;;;;5056422;28;20393;-68
2022/11/13 12:20:51;;;;;;;9.93;6.90;;;13.00;65.10;;;;;;5084095;28;20032;-68
2022/11/13 12:23:44;;;;;;;8.00;7.20;;;13.10;65.20;;;;;;5073291;28;20068;-68
2022/11/13 12:26:22;;;;;;;7.47;6.75;;;13.00;65.20;;;;;;5073026;28;20051;-67
2022/11/13 12:29:11;;;;;;;9.23;7.00;;;13.00;65.50;;;;;;5073306;28;20051;-68
2022/11/13 12:31:51;;;;;;;8.93;6.80;;;13.10;65.40;;;;;;5075690;28;20381;-67
2022/11/13 12:34:37;;;;;;;7.20;6.43;;;13.10;65.60;;;;;;5069374;28;20048;-67
2022/11/13 12:37:09;;;;;;;8.63;7.13;;;13.10;65.90;;;;;;5054047;28;20045;-68
2022/11/13 12:39:55;;;;;;;8.43;6.55;;;13.10;65.80;;;;;;5065552;28;20068;-68
2022/11/13 12:42:33;;;;;;;8.05;6.18;;;13.10;65.50;;;;;;5072598;28;20046;-67
2022/11/13 12:45:18;;;;;;;7.22;5.95;;;13.20;65.60;;;;;;5062239;28;20042;-68
2022/11/13 12:47:44;;;;;;;8.15;5.70;;;13.20;64.00;;;;;;5070511;28;20036;-67
2022/11/13 12:50:26;;;;;;;7.70;6.45;;;13.20;63.60;;;;;;5067841;28;20041;-68
2022/11/13 12:53:23;;;;;;;7.18;5.70;;;13.30;63.50;;;;;;5071090;28;20106;-67
2022/11/13 12:56:27;;;;;;;8.48;6.70;;;13.30;62.00;;;;;;5081983;28;20052;-67
2022/11/13 12:59:17;;;;;;;6.85;6.00;;;13.30;62.30;;;;;;5036531;28;20114;-67